Dauntless Aviation
Greetings, Guest! To participate, [sign up for a free account] or [log in]
Airports Europe Czech Republic
LKPO
PRV

Prerov

Prerov, CZECH REPUBLIC

Airport Info
Edit

Location

Latitude / Longitude: 49°25'32"N / 17°24'16"E
  49°25.548'N / 17°24.282'E
  49.4258 / 17.4047

Nearby radio navigation aids

CK PREROV NDB. 63.6° 2.8nm from CK to field.

Runway Information

Runway 06 /24

Dimensions: 8202 x 196 ft.
Surface: ASP
 
Runway 06
Runway 24
Latitude: 49.421419 49.430439
Longitude: 17.389275 17.420478
Elevation: 663 ft. 663 ft.
Runway true heading: 64.6 244.6
 

Instrument Procedures

  Aerodrome Chart

IAPs (Instrument Approach Procedures)

  ILS/DME Rwy 06
  NDB/DME (GPS) or PAR Rwy 06
  NDB (GPS) or PAR Rwy 06
  POLOM 3A

Departure Procedures

  Instrument Departure Chart HLV 1A - 2Z
  Instrument Departure Chart LUTIM 2A - 2Z
  Instrument Departure Chart MORKO 2Z
  Instrument Departure Chart POLOM 3A
Satellite photo at:
Airport distance calculator
From:
Weather Reports

METAR

LKKU
23.6nm SE
LKKU 231200Z 01022G34KT 9999 -RA SCT010 OVC014 08/07 Q1011 RMK REG QNH 1010
LKMT
31.3nm NE
LKMT 231200Z 02013KT 2800 -DZRA BKN004 OVC010 07/06 Q1015 TEMPO 2000 DZ BR BKN003
LKTB
33.3nm SW
LKTB 231200Z 01015KT 9999 -DZ SCT016 OVC019 10/06 Q1013 NOSIG

TAF

LKMT
31.3nm NE
TAF LKMT 231100Z 2312/2418 03016KT 7000 OVC012 TEMPO 2312/2418 03018G30KT 4000 RA OVC006 PROB30 TEMPO 2312/2418 2000 BR BKN003
LKTB
33.3nm SW
TAF LKTB 231100Z 2312/2418 36014KT 9999 OVC020 TEMPO 2312/2318 01016G26KT 4000 RA BKN012 TEMPO 2400/2410 4000 BR BKN012 PROB30 TEMPO 2402/2408 2000 BR BKN006 BECMG 2410/2412 05012KT
Safelog

 

Dauntless Aviation

© 2007-2014 Dauntless Aviation, all rights reserved
Information provided via PilotNav comes from a variety of official and unofficial data sources. As errors are possible, do not use PilotNav for primary flight planning purposes. Verify any information that you receive via PilotNav with current and canonical charts and other official documents. The material in this database is subject to database copyrights held by Dauntless Aviation and may not be copied without the express permission of Dauntless Aviation - licenses for use of part of all of this data are available for purchase; enquire via the Dauntless Aviation helpdesk. A number of mechanisms and markers exist in the database to protect against and identify infringement / copyright. Automated queries against this website are stictly prohibited, and all activity is logged and analyzed.